Terminal Aerodrome Forecast
Issued by NWS Twin Cities, MN

Home | Current Version | Previous Version | Graphics & Text | Print | Product List | Glossary On
Versions: 1 2 3 4 5 6 7 8 9 10 11 12 13 14
000
FTUS43 KMPX 230900 AAA
TAFSTC
TAF AMD
KSTC 230906Z 2309/2406 20006KT 5SM BR BKN005 OVC020
     FM231000 22004KT 2SM BR OVC008
      TEMPO 2310/2313 1/2SM FG VV003
     FM231400 24008KT P6SM SCT010
     FM240100 19005KT P6SM SKC=

USA.gov is the U.S. government's official web portal to all federal, state and local government web resources and services.